createdAt,value
2022-08-24T00:02:05.955Z,10.52
2022-08-24T00:05:12.779Z,11.02
2022-08-24T00:08:17.831Z,10.48
2022-08-24T00:11:20.382Z,11.98
2022-08-24T00:14:22.462Z,11.25
2022-08-24T00:17:25.235Z,11.13
2022-08-24T00:20:29.685Z,10.98
2022-08-24T00:23:32.173Z,11.07
2022-08-24T00:26:35.538Z,11.93
2022-08-24T00:29:38.309Z,11.10
2022-08-24T00:32:40.358Z,11.75
2022-08-24T00:35:42.582Z,11.73
2022-08-24T00:38:44.547Z,11.13
2022-08-24T00:41:50.097Z,10.88
2022-08-24T00:44:52.224Z,11.88
2022-08-24T00:48:01.056Z,12.10
2022-08-24T00:51:10.538Z,12.65
2022-08-24T00:54:17.479Z,12.05
2022-08-24T00:57:22.715Z,12.73
2022-08-24T01:00:32.181Z,13.48
2022-08-24T01:03:36.140Z,13.50
2022-08-24T01:06:38.741Z,13.57
2022-08-24T01:09:40.869Z,14.20
2022-08-24T01:12:52.279Z,12.45
2022-08-24T01:16:07.417Z,13.80
2022-08-24T01:19:21.669Z,14.77
2022-08-24T01:22:53.393Z,14.40
2022-08-24T01:25:56.191Z,16.17
2022-08-24T01:29:12.352Z,15.15
2022-08-24T01:32:14.819Z,16.17
2022-08-24T01:35:17.039Z,15.30
2022-08-24T01:38:19.244Z,16.38
2022-08-24T01:41:22.454Z,14.68
2022-08-24T01:44:30.014Z,16.88
2022-08-24T01:47:31.983Z,17.73
2022-08-24T01:50:34.976Z,17.90
2022-08-24T01:53:37.247Z,18.10
2022-08-24T01:56:39.650Z,21.15
2022-08-24T01:59:41.817Z,19.70
2022-08-24T02:02:45.492Z,21.98
2022-08-24T02:05:48.388Z,24.52
2022-08-24T02:08:50.525Z,23.60
2022-08-24T02:11:52.727Z,23.90
2022-08-24T02:14:54.893Z,24.30
2022-08-24T02:17:57.518Z,24.83
2022-08-24T02:21:01.175Z,23.70
2022-08-24T02:24:03.792Z,24.08
2022-08-24T02:27:07.036Z,24.73
2022-08-24T02:30:09.728Z,21.67
2022-08-24T02:33:12.951Z,22.27
2022-08-24T02:36:25.466Z,22.00
2022-08-24T02:39:28.565Z,22.85
2022-08-24T02:42:30.724Z,23.52
2022-08-24T02:45:33.596Z,24.50
2022-08-24T02:48:35.682Z,21.17
2022-08-24T02:51:44.100Z,22.73
2022-08-24T02:54:47.211Z,21.50
2022-08-24T02:57:50.531Z,22.15
2022-08-24T03:00:52.490Z,22.55
2022-08-24T03:03:55.257Z,21.85
2022-08-24T03:06:57.338Z,22.48
2022-08-24T03:09:59.672Z,20.42
2022-08-24T03:13:03.101Z,20.98
2022-08-24T03:16:06.346Z,19.92
2022-08-24T03:19:08.426Z,19.73
2022-08-24T03:22:10.574Z,20.25
2022-08-24T03:25:14.495Z,20.17
2022-08-24T03:28:17.592Z,17.75
2022-08-24T03:31:20.635Z,18.13
2022-08-24T03:34:22.819Z,19.27
2022-08-24T03:37:25.464Z,19.15
2022-08-24T03:40:28.381Z,20.15
2022-08-24T03:43:49.017Z,19.27
2022-08-24T03:46:52.716Z,19.75
2022-08-24T03:49:56.261Z,19.75
2022-08-24T03:52:59.046Z,20.13
2022-08-24T03:56:01.083Z,19.00
2022-08-24T03:59:11.062Z,23.05
2022-08-24T04:02:13.165Z,20.17
2022-08-24T04:05:16.961Z,23.60
2022-08-24T04:08:19.343Z,24.27
2022-08-24T04:11:25.693Z,24.48
2022-08-24T04:14:28.057Z,24.42
2022-08-24T04:17:30.418Z,22.58
2022-08-24T04:20:37.036Z,22.90
2022-08-24T04:23:47.185Z,21.73
2022-08-24T04:26:49.999Z,21.92
2022-08-24T04:29:53.121Z,21.40
2022-08-24T04:32:55.380Z,22.45
2022-08-24T04:35:58.436Z,24.42
2022-08-24T04:39:01.165Z,23.80
2022-08-24T04:42:03.951Z,23.27
2022-08-24T04:45:06.236Z,21.48
2022-08-24T04:48:08.685Z,22.60
2022-08-24T04:51:18.039Z,20.48
2022-08-24T04:54:20.447Z,20.23
2022-08-24T04:57:23.434Z,20.45
2022-08-24T05:00:26.022Z,20.15
2022-08-24T05:03:28.517Z,19.25
2022-08-24T05:06:32.984Z,18.92
2022-08-24T05:09:34.996Z,18.27
2022-08-24T05:12:42.792Z,17.27
2022-08-24T05:15:47.546Z,16.90
2022-08-24T05:18:50.424Z,16.00
2022-08-24T05:21:52.712Z,17.00
2022-08-24T05:24:54.920Z,15.65
2022-08-24T05:27:58.231Z,13.82
2022-08-24T05:31:11.986Z,14.77
2022-08-24T05:34:14.659Z,15.88
2022-08-24T05:37:16.887Z,14.68
2022-08-24T05:40:20.353Z,13.50
2022-08-24T05:43:22.825Z,13.38
2022-08-24T05:46:24.826Z,13.80
2022-08-24T05:49:27.789Z,14.60
2022-08-24T05:52:30.981Z,14.05
2022-08-24T05:55:33.225Z,14.90
2022-08-24T05:58:36.218Z,13.45
2022-08-24T06:01:43.354Z,14.80
2022-08-24T06:04:47.176Z,13.70
2022-08-24T06:07:49.931Z,12.90
2022-08-24T06:10:52.171Z,12.13
2022-08-24T06:13:59.226Z,12.45
2022-08-24T06:17:03.784Z,12.98
2022-08-24T06:20:07.421Z,12.20
2022-08-24T06:23:10.469Z,12.65
2022-08-24T06:26:32.117Z,13.20
2022-08-24T06:29:34.499Z,13.65
2022-08-24T06:32:37.579Z,14.00
2022-08-24T06:35:43.555Z,15.90
2022-08-24T06:38:48.607Z,15.02
2022-08-24T06:41:50.566Z,14.40
2022-08-24T06:44:52.920Z,15.00
2022-08-24T06:47:55.768Z,16.40
2022-08-24T06:50:58.696Z,15.45
2022-08-24T06:54:00.863Z,15.60
2022-08-24T06:57:03.212Z,17.00
2022-08-24T07:00:06.704Z,15.38
2022-08-24T07:03:08.986Z,16.30
2022-08-24T07:06:12.711Z,17.33
2022-08-24T07:09:14.845Z,16.17
2022-08-24T07:12:17.153Z,16.55
2022-08-24T07:15:20.051Z,17.58
2022-08-24T07:18:22.085Z,16.80
2022-08-24T07:21:26.811Z,16.05
2022-08-24T07:24:28.791Z,16.00
2022-08-24T07:27:31.393Z,15.25
2022-08-24T07:30:33.432Z,15.60
2022-08-24T07:33:36.181Z,16.10
2022-08-24T07:36:44.256Z,16.67
2022-08-24T07:39:47.037Z,17.20
2022-08-24T07:42:50.741Z,13.93
2022-08-24T07:45:52.997Z,12.30
2022-08-24T07:49:05.036Z,11.75
2022-08-24T07:52:15.283Z,13.18
2022-08-24T07:55:17.302Z,11.40
2022-08-24T07:58:19.825Z,14.30
2022-08-24T08:01:22.584Z,13.18
2022-08-24T08:04:26.010Z,12.93
2022-08-24T08:07:27.992Z,12.98
2022-08-24T08:10:35.874Z,12.65
2022-08-24T08:16:41.898Z,12.50
2022-08-24T08:19:43.900Z,13.05
2022-08-24T08:23:04.714Z,11.95
2022-08-24T08:26:08.465Z,10.90
2022-08-24T08:29:13.366Z,12.32
2022-08-24T08:32:17.329Z,10.00
2022-08-24T08:35:19.612Z,11.52
2022-08-24T08:38:21.636Z,11.35
2022-08-24T08:42:02.048Z,11.40
2022-08-24T08:45:26.292Z,11.63
2022-08-24T08:48:54.744Z,10.75
2022-08-24T08:52:27.333Z,11.07
2022-08-24T08:55:38.680Z,10.57
2022-08-24T08:59:33.939Z,10.18
2022-08-24T09:03:07.261Z,9.48
2022-08-24T09:06:33.573Z,10.07
2022-08-24T09:09:55.971Z,7.57
2022-08-24T09:13:31.823Z,8.82
2022-08-24T09:17:07.539Z,9.32
2022-08-24T09:20:22.189Z,9.43
2022-08-24T09:23:42.996Z,9.05
2022-08-24T09:27:17.411Z,7.78
2022-08-24T09:30:32.876Z,7.43
2022-08-24T09:34:01.932Z,7.63
2022-08-24T09:37:34.675Z,7.18
2022-08-24T09:40:46.060Z,6.97
2022-08-24T09:44:27.752Z,6.88
2022-08-24T09:48:15.812Z,7.78
2022-08-24T09:51:49.946Z,7.03
2022-08-24T09:55:16.290Z,7.30
2022-08-24T09:58:27.102Z,6.30
2022-08-24T10:01:51.327Z,7.60
2022-08-24T10:05:09.901Z,7.28
2022-08-24T10:08:45.857Z,6.90
2022-08-24T10:12:18.222Z,6.30
2022-08-24T10:15:28.208Z,5.50
2022-08-24T10:18:56.229Z,6.45
2022-08-24T10:22:16.810Z,6.10
2022-08-24T10:25:21.487Z,6.63
2022-08-24T10:28:54.583Z,6.05
2022-08-24T10:32:23.923Z,5.63
2022-08-24T10:35:54.454Z,5.90
2022-08-24T10:39:43.345Z,5.72
2022-08-24T10:43:28.269Z,6.13
2022-08-24T10:46:44.784Z,5.63
2022-08-24T10:50:19.148Z,6.28
2022-08-24T10:53:23.846Z,6.90
2022-08-24T10:57:00.669Z,6.90
2022-08-24T11:00:07.101Z,7.10
2022-08-24T11:03:16.182Z,7.45
2022-08-24T11:06:20.140Z,7.30
2022-08-24T11:09:22.066Z,9.10
2022-08-24T11:12:29.734Z,8.73
2022-08-24T11:15:31.700Z,7.95
2022-08-24T11:18:50.099Z,7.47
2022-08-24T11:21:54.669Z,7.80
2022-08-24T11:25:04.984Z,6.88
2022-08-24T11:28:25.597Z,6.90
2022-08-24T11:31:40.527Z,6.20
2022-08-24T11:34:46.874Z,6.55
2022-08-24T11:37:51.547Z,5.70
2022-08-24T11:41:08.830Z,5.68
2022-08-24T11:44:41.283Z,5.45
2022-08-24T11:48:12.418Z,6.05
2022-08-24T11:51:37.275Z,6.43
2022-08-24T11:54:50.977Z,5.97
2022-08-24T11:58:23.519Z,5.78
2022-08-24T12:01:28.175Z,5.40
2022-08-24T12:04:55.196Z,6.20
2022-08-24T12:08:09.859Z,5.25
2022-08-24T12:11:28.112Z,5.32
2022-08-24T12:14:46.294Z,6.28
2022-08-24T12:18:08.284Z,5.40
2022-08-24T12:21:19.740Z,5.38
2022-08-24T12:24:38.977Z,6.25
2022-08-24T12:27:41.450Z,5.28
2022-08-24T12:30:45.508Z,5.85
2022-08-24T12:33:53.207Z,5.10
2022-08-24T12:37:19.677Z,6.22
2022-08-24T12:40:44.808Z,6.03
2022-08-24T12:43:55.412Z,7.22
2022-08-24T12:46:57.589Z,6.93
2022-08-24T12:50:10.004Z,5.75
2022-08-24T12:53:33.159Z,5.90
2022-08-24T12:57:07.339Z,5.68
2022-08-24T13:00:27.096Z,5.72
2022-08-24T13:03:46.001Z,6.65
2022-08-24T13:06:59.916Z,6.45
2022-08-24T13:10:06.574Z,5.93
2022-08-24T13:13:16.502Z,5.95
2022-08-24T13:16:56.368Z,6.10
2022-08-24T13:20:20.231Z,6.15
2022-08-24T13:23:24.318Z,7.38
2022-08-24T13:26:27.694Z,5.63
2022-08-24T13:29:34.762Z,6.32
2022-08-24T13:32:47.881Z,6.00
2022-08-24T13:35:58.060Z,6.03
2022-08-24T13:38:59.915Z,5.95
2022-08-24T13:42:10.889Z,6.15
2022-08-24T13:45:25.374Z,5.93
2022-08-24T13:48:42.532Z,7.90
2022-08-24T13:51:52.027Z,5.97
2022-08-24T13:55:16.326Z,6.18
2022-08-24T13:58:36.838Z,6.00
2022-08-24T14:01:57.593Z,5.95
2022-08-24T14:05:23.524Z,6.15
2022-08-24T14:08:50.403Z,5.90
2022-08-24T14:12:24.120Z,5.80
2022-08-24T14:16:10.796Z,5.80
2022-08-24T14:19:37.598Z,10.32
2022-08-24T14:23:09.087Z,5.80
2022-08-24T14:26:41.602Z,5.95
2022-08-24T14:29:46.635Z,6.43
2022-08-24T14:33:00.432Z,6.18
2022-08-24T14:36:31.168Z,6.60
2022-08-24T14:39:41.087Z,5.97
2022-08-24T14:42:46.038Z,5.28
2022-08-24T14:46:24.979Z,6.15
2022-08-24T14:49:41.634Z,5.63
2022-08-24T14:53:19.879Z,7.00
2022-08-24T14:56:37.140Z,5.60
2022-08-24T15:00:10.937Z,5.50
2022-08-24T15:03:43.399Z,6.13
2022-08-24T15:06:48.203Z,5.90
2022-08-24T15:09:51.356Z,6.28
2022-08-24T15:13:03.353Z,6.53
2022-08-24T15:16:24.425Z,8.32
2022-08-24T15:19:42.504Z,9.40
2022-08-24T15:22:59.746Z,6.97
2022-08-24T15:26:11.942Z,7.47
2022-08-24T15:29:21.364Z,8.68
2022-08-24T15:32:40.505Z,6.57
2022-08-24T15:35:48.832Z,6.53
2022-08-24T15:38:51.068Z,5.85
2022-08-24T15:41:54.130Z,7.20
2022-08-24T15:44:59.942Z,7.65
2022-08-24T15:48:05.173Z,6.60
2022-08-24T15:51:07.329Z,6.25
2022-08-24T15:54:33.597Z,6.05
2022-08-24T15:57:42.863Z,6.63
2022-08-24T16:01:03.539Z,6.43
2022-08-24T16:04:17.305Z,6.75
2022-08-24T16:07:25.768Z,6.20
2022-08-24T16:10:31.851Z,6.50
2022-08-24T16:13:34.098Z,6.05
2022-08-24T16:16:39.479Z,6.57
2022-08-24T16:19:48.527Z,6.22
2022-08-24T16:23:00.244Z,6.40
2022-08-24T16:26:47.629Z,6.88
2022-08-24T16:29:53.824Z,6.70
2022-08-24T16:32:57.732Z,6.80
2022-08-24T16:36:06.099Z,7.22
2022-08-24T16:39:11.491Z,7.43
2022-08-24T16:42:21.993Z,7.03
2022-08-24T16:45:24.230Z,7.22
2022-08-24T16:48:26.518Z,7.82
2022-08-24T16:51:28.819Z,7.90
2022-08-24T16:54:31.589Z,7.78
2022-08-24T16:57:37.707Z,8.38
2022-08-24T17:00:40.802Z,7.65
2022-08-24T17:03:43.089Z,8.30
2022-08-24T17:06:49.814Z,8.48
2022-08-24T17:09:54.442Z,8.30
2022-08-24T17:12:58.236Z,8.15
2022-08-24T17:16:02.184Z,8.90
2022-08-24T17:19:10.895Z,9.05
2022-08-24T17:22:16.557Z,8.15
2022-08-24T17:25:18.708Z,8.32
2022-08-24T17:28:20.909Z,8.13
2022-08-24T17:31:25.078Z,7.78
2022-08-24T17:34:30.318Z,8.10
2022-08-24T17:37:32.790Z,7.63
2022-08-24T17:40:35.592Z,9.13
2022-08-24T17:43:37.624Z,7.75
2022-08-24T17:46:40.545Z,8.65
2022-08-24T17:49:42.456Z,10.95
2022-08-24T17:52:44.662Z,9.68
2022-08-24T17:55:46.966Z,9.05
2022-08-24T17:59:08.036Z,8.90
2022-08-24T18:02:13.376Z,8.60
2022-08-24T18:05:16.064Z,8.93
2022-08-24T18:08:18.125Z,8.95
2022-08-24T18:11:25.249Z,9.00
2022-08-24T18:14:29.492Z,8.90
2022-08-24T18:17:39.411Z,8.63
2022-08-24T18:20:42.789Z,9.45
2022-08-24T18:23:44.954Z,12.25
2022-08-24T18:26:48.965Z,11.73
2022-08-24T18:29:55.046Z,10.52
2022-08-24T18:33:01.783Z,33.65
2022-08-24T18:36:04.198Z,9.10
2022-08-24T18:39:07.296Z,9.32
2022-08-24T18:42:11.869Z,8.98
2022-08-24T18:45:14.465Z,9.35
2022-08-24T18:48:16.605Z,9.38
2022-08-24T18:51:20.404Z,10.23
2022-08-24T18:54:26.434Z,9.52
2022-08-24T18:57:28.789Z,10.60
2022-08-24T19:00:31.254Z,9.60
2022-08-24T19:03:33.896Z,9.23
2022-08-24T19:06:35.976Z,9.77
2022-08-24T19:09:38.231Z,10.10
2022-08-24T19:13:06.093Z,9.40
2022-08-24T19:16:08.226Z,10.27
2022-08-24T19:19:12.403Z,9.75
2022-08-24T19:22:15.612Z,9.43
2022-08-24T19:25:25.066Z,17.75
2022-08-24T19:28:28.174Z,12.48
2022-08-24T19:31:33.943Z,12.27
2022-08-24T19:34:36.854Z,11.15
2022-08-24T19:37:40.463Z,11.52
2022-08-24T19:40:47.680Z,11.48
2022-08-24T19:44:12.490Z,11.05
2022-08-24T19:47:29.247Z,11.25
2022-08-24T19:50:35.547Z,11.50
2022-08-24T19:53:39.238Z,12.10
2022-08-24T19:56:41.444Z,11.23
2022-08-24T19:59:45.174Z,11.35
2022-08-24T20:02:49.415Z,11.60
2022-08-24T20:05:51.459Z,11.18
2022-08-24T20:08:56.839Z,10.75
2022-08-24T20:11:58.828Z,11.55
2022-08-24T20:15:01.014Z,12.95
2022-08-24T20:18:03.222Z,11.93
2022-08-24T20:21:06.560Z,11.00
2022-08-24T20:24:08.849Z,14.70
2022-08-24T20:27:19.077Z,12.18
2022-08-24T20:30:21.611Z,12.52
2022-08-24T20:33:24.805Z,12.65
2022-08-24T20:36:38.641Z,13.32
2022-08-24T20:39:40.893Z,12.88
2022-08-24T20:42:42.900Z,13.40
2022-08-24T20:45:45.543Z,13.10
2022-08-24T20:48:55.342Z,13.40
2022-08-24T20:52:00.236Z,13.38
2022-08-24T20:55:04.950Z,12.60
2022-08-24T20:58:08.343Z,12.68
2022-08-24T21:01:10.376Z,12.73
2022-08-24T21:04:12.638Z,11.57
2022-08-24T21:07:14.643Z,12.45
2022-08-24T21:10:19.610Z,12.70
2022-08-24T21:13:21.895Z,12.52
2022-08-24T21:16:24.060Z,14.55
2022-08-24T21:19:26.029Z,11.90
2022-08-24T21:22:28.199Z,12.55
2022-08-24T21:25:31.234Z,12.10
2022-08-24T21:28:35.042Z,11.77
2022-08-24T21:31:38.039Z,12.98
2022-08-24T21:34:40.297Z,13.50
2022-08-24T21:37:42.459Z,13.32
2022-08-24T21:40:44.799Z,12.68
2022-08-24T21:43:46.746Z,11.25
2022-08-24T21:46:49.968Z,11.32
2022-08-24T21:49:51.933Z,12.93
2022-08-24T21:52:54.158Z,12.70
2022-08-24T21:55:56.925Z,13.68
2022-08-24T21:58:59.297Z,13.23
2022-08-24T22:02:01.893Z,13.63
2022-08-24T22:05:04.645Z,14.05
2022-08-24T22:08:07.689Z,13.85
2022-08-24T22:11:12.092Z,15.02
2022-08-24T22:14:16.717Z,13.38
2022-08-24T22:17:18.849Z,14.10
2022-08-24T22:20:23.233Z,14.45
2022-08-24T22:23:25.681Z,13.57
2022-08-24T22:26:29.005Z,12.60
2022-08-24T22:29:32.309Z,12.45
2022-08-24T22:32:34.258Z,14.15
2022-08-24T22:35:44.758Z,13.35
2022-08-24T22:38:47.612Z,12.18
2022-08-24T22:41:49.715Z,12.98
2022-08-24T22:44:51.661Z,13.38
2022-08-24T22:47:54.099Z,11.02
2022-08-24T22:50:56.016Z,12.35
2022-08-24T22:53:58.216Z,12.52
2022-08-24T22:57:01.178Z,11.30
2022-08-24T23:00:04.922Z,10.93
2022-08-24T23:03:06.909Z,10.85
2022-08-24T23:06:09.069Z,10.73
2022-08-24T23:09:11.676Z,9.77
2022-08-24T23:12:18.981Z,10.75
2022-08-24T23:15:21.008Z,10.23
2022-08-24T23:18:41.790Z,11.20
2022-08-24T23:21:43.908Z,11.25
2022-08-24T23:24:47.402Z,11.00
2022-08-24T23:27:50.209Z,9.52
2022-08-24T23:30:52.486Z,10.75
2022-08-24T23:33:54.493Z,13.25
2022-08-24T23:36:56.800Z,13.50
2022-08-24T23:39:59.092Z,14.82
2022-08-24T23:43:01.299Z,16.23
2022-08-24T23:46:04.100Z,14.98
2022-08-24T23:49:06.611Z,14.32
2022-08-24T23:52:08.956Z,14.23
2022-08-24T23:55:28.628Z,13.88
2022-08-24T23:58:30.667Z,12.82
